sensor_id;sensor_type;location;lat;lon;timestamp;pressure;altitude;pressure_sealevel;temperature;humidity
61014;BME280;46899;47.542;19.082;2023-01-06T00:02:57;100802.75;;;8.48;100.00
61014;BME280;46899;47.542;19.082;2023-01-06T00:06:00;100797.78;;;8.36;100.00
61014;BME280;46899;47.542;19.082;2023-01-06T00:09:03;100804.72;;;8.36;100.00
61014;BME280;46899;47.542;19.082;2023-01-06T00:12:06;100801.28;;;8.35;100.00
61014;BME280;46899;47.542;19.082;2023-01-06T00:15:09;100805.66;;;8.32;100.00
61014;BME280;46899;47.542;19.082;2023-01-06T00:18:11;100798.06;;;8.21;100.00
61014;BME280;46899;47.542;19.082;2023-01-06T00:21:14;100805.12;;;8.11;100.00
61014;BME280;46899;47.542;19.082;2023-01-06T00:24:17;100813.94;;;8.03;100.00
61014;BME280;46899;47.542;19.082;2023-01-06T00:27:19;100819.16;;;8.00;100.00
61014;BME280;46899;47.542;19.082;2023-01-06T00:30:22;100813.03;;;8.04;100.00
61014;BME280;46899;47.542;19.082;2023-01-06T00:33:24;100832.91;;;8.05;100.00
61014;BME280;46899;47.542;19.082;2023-01-06T00:36:27;100843.19;;;8.09;100.00
61014;BME280;46899;47.542;19.082;2023-01-06T00:39:29;100839.75;;;8.07;100.00
61014;BME280;46899;47.542;19.082;2023-01-06T00:42:33;100843.19;;;8.08;100.00
61014;BME280;46899;47.542;19.082;2023-01-06T00:45:35;100840.50;;;8.14;100.00
61014;BME280;46899;47.542;19.082;2023-01-06T00:48:38;100849.94;;;8.19;100.00
61014;BME280;46899;47.542;19.082;2023-01-06T00:51:48;100842.34;;;8.07;100.00
61014;BME280;46899;47.542;19.082;2023-01-06T00:54:51;100855.41;;;8.01;100.00
61014;BME280;46899;47.542;19.082;2023-01-06T00:57:56;100865.94;;;7.91;100.00
61014;BME280;46899;47.542;19.082;2023-01-06T01:01:02;100883.34;;;7.84;100.00
61014;BME280;46899;47.542;19.082;2023-01-06T01:04:05;100889.28;;;7.89;100.00
61014;BME280;46899;47.542;19.082;2023-01-06T01:07:11;100882.28;;;7.94;100.00
61014;BME280;46899;47.542;19.082;2023-01-06T01:10:13;100890.09;;;7.93;100.00
61014;BME280;46899;47.542;19.082;2023-01-06T01:13:16;100896.09;;;7.95;100.00
61014;BME280;46899;47.542;19.082;2023-01-06T01:16:19;100901.31;;;7.93;100.00
61014;BME280;46899;47.542;19.082;2023-01-06T01:19:23;100908.31;;;7.88;100.00
61014;BME280;46899;47.542;19.082;2023-01-06T01:22:26;100901.50;;;7.81;100.00
61014;BME280;46899;47.542;19.082;2023-01-06T01:25:29;100905.03;;;7.76;100.00
61014;BME280;46899;47.542;19.082;2023-01-06T01:28:31;100908.56;;;7.70;100.00
61014;BME280;46899;47.542;19.082;2023-01-06T01:31:34;100906.03;;;7.67;100.00
61014;BME280;46899;47.542;19.082;2023-01-06T01:34:36;100904.31;;;7.68;100.00
61014;BME280;46899;47.542;19.082;2023-01-06T01:37:39;100906.09;;;7.63;100.00
61014;BME280;46899;47.542;19.082;2023-01-06T01:40:48;100905.25;;;7.59;100.00
61014;BME280;46899;47.542;19.082;2023-01-06T01:43:53;100906.19;;;7.55;100.00
61014;BME280;46899;47.542;19.082;2023-01-06T01:46:56;100905.25;;;7.59;100.00
61014;BME280;46899;47.542;19.082;2023-01-06T01:50:02;100918.34;;;7.50;100.00
61014;BME280;46899;47.542;19.082;2023-01-06T01:53:09;100917.47;;;7.51;100.00
61014;BME280;46899;47.542;19.082;2023-01-06T01:56:16;100934.81;;;7.46;100.00
61014;BME280;46899;47.542;19.082;2023-01-06T01:59:20;100946.84;;;7.48;100.00
61014;BME280;46899;47.542;19.082;2023-01-06T02:02:24;100954.56;;;7.53;100.00
61014;BME280;46899;47.542;19.082;2023-01-06T02:05:30;100964.09;;;7.49;100.00
61014;BME280;46899;47.542;19.082;2023-01-06T02:08:35;100963.19;;;7.52;100.00
61014;BME280;46899;47.542;19.082;2023-01-06T02:11:38;100974.38;;;7.55;100.00
61014;BME280;46899;47.542;19.082;2023-01-06T02:14:41;100970.25;;;7.41;100.00
61014;BME280;46899;47.542;19.082;2023-01-06T02:17:58;100972.72;;;7.50;100.00
61014;BME280;46899;47.542;19.082;2023-01-06T02:24:36;100980.63;;;7.38;100.00
61014;BME280;46899;47.542;19.082;2023-01-06T02:37:39;100961.56;;;7.45;100.00
61014;BME280;46899;47.542;19.082;2023-01-06T02:40:47;100966.66;;;7.51;100.00
61014;BME280;46899;47.542;19.082;2023-01-06T02:43:55;100973.59;;;7.47;100.00
61014;BME280;46899;47.542;19.082;2023-01-06T02:47:17;100970.28;;;7.35;100.00
61014;BME280;46899;47.542;19.082;2023-01-06T02:50:29;100972.97;;;7.29;100.00
61014;BME280;46899;47.542;19.082;2023-01-06T02:56:45;100973.00;;;7.27;100.00
61014;BME280;46899;47.542;19.082;2023-01-06T03:00:00;100970.41;;;7.27;100.00
61014;BME280;46899;47.542;19.082;2023-01-06T03:03:23;100975.50;;;7.33;100.00
61014;BME280;46899;47.542;19.082;2023-01-06T03:06:28;100981.44;;;7.43;100.00
61014;BME280;46899;47.542;19.082;2023-01-06T03:09:33;100983.09;;;7.48;100.00
61014;BME280;46899;47.542;19.082;2023-01-06T03:12:41;100976.97;;;7.54;100.00
61014;BME280;46899;47.542;19.082;2023-01-06T03:15:47;100976.16;;;7.49;100.00
61014;BME280;46899;47.542;19.082;2023-01-06T03:18:50;100971.16;;;7.37;100.00
61014;BME280;46899;47.542;19.082;2023-01-06T03:21:54;100985.97;;;7.24;100.00
61014;BME280;46899;47.542;19.082;2023-01-06T03:24:57;100980.84;;;7.20;100.00
61014;BME280;46899;47.542;19.082;2023-01-06T03:28:00;100993.81;;;7.17;100.00
61014;BME280;46899;47.542;19.082;2023-01-06T03:40:33;100998.28;;;7.04;100.00
61014;BME280;46899;47.542;19.082;2023-01-06T03:46:50;101005.22;;;6.98;100.00
61014;BME280;46899;47.542;19.082;2023-01-06T03:49:55;101002.72;;;6.92;100.00
61014;BME280;46899;47.542;19.082;2023-01-06T03:53:14;101000.16;;;6.87;100.00
61014;BME280;46899;47.542;19.082;2023-01-06T03:56:20;101004.53;;;6.82;100.00
61014;BME280;46899;47.542;19.082;2023-01-06T03:59:25;101004.50;;;6.85;100.00
61014;BME280;46899;47.542;19.082;2023-01-06T04:02:29;101007.84;;;6.95;100.00
61014;BME280;46899;47.542;19.082;2023-01-06T04:05:31;101011.41;;;6.84;100.00
61014;BME280;46899;47.542;19.082;2023-01-06T04:08:35;101011.41;;;6.81;100.00
61014;BME280;46899;47.542;19.082;2023-01-06T04:11:38;101016.66;;;6.72;100.00
61014;BME280;46899;47.542;19.082;2023-01-06T04:15:00;101027.88;;;6.73;100.00
61014;BME280;46899;47.542;19.082;2023-01-06T04:18:04;101027.97;;;6.64;100.00
61014;BME280;46899;47.542;19.082;2023-01-06T04:21:06;101029.69;;;6.60;100.00
61014;BME280;46899;47.542;19.082;2023-01-06T04:24:11;101034.09;;;6.49;100.00
61014;BME280;46899;47.542;19.082;2023-01-06T04:27:13;101032.34;;;6.51;100.00
61014;BME280;46899;47.542;19.082;2023-01-06T04:30:16;101030.63;;;6.50;100.00
61014;BME280;46899;47.542;19.082;2023-01-06T04:33:19;101036.56;;;6.66;100.00
61014;BME280;46899;47.542;19.082;2023-01-06T04:36:22;101033.75;;;6.88;100.00
61014;BME280;46899;47.542;19.082;2023-01-06T04:39:25;101031.13;;;6.93;100.00
61014;BME280;46899;47.542;19.082;2023-01-06T04:42:27;101038.06;;;6.91;100.00
61014;BME280;46899;47.542;19.082;2023-01-06T04:45:33;101042.38;;;6.89;100.00
61014;BME280;46899;47.542;19.082;2023-01-06T04:48:36;101040.69;;;6.83;100.00
61014;BME280;46899;47.542;19.082;2023-01-06T04:51:38;101036.31;;;6.95;100.00
61014;BME280;46899;47.542;19.082;2023-01-06T04:54:41;101039.72;;;6.98;100.00
61014;BME280;46899;47.542;19.082;2023-01-06T04:57:43;101038.88;;;6.96;100.00
61014;BME280;46899;47.542;19.082;2023-01-06T05:00:46;101041.56;;;6.84;100.00
61014;BME280;46899;47.542;19.082;2023-01-06T05:03:49;101052.00;;;6.72;100.00
61014;BME280;46899;47.542;19.082;2023-01-06T05:06:52;101070.16;;;6.64;100.00
61014;BME280;46899;47.542;19.082;2023-01-06T05:09:54;101080.63;;;6.52;100.00
61014;BME280;46899;47.542;19.082;2023-01-06T05:12:57;101094.31;;;6.66;100.00
61014;BME280;46899;47.542;19.082;2023-01-06T05:15:59;101101.34;;;6.43;100.00
61014;BME280;46899;47.542;19.082;2023-01-06T05:19:02;101109.22;;;6.24;100.00
61014;BME280;46899;47.542;19.082;2023-01-06T05:22:05;101113.56;;;6.08;100.00
61014;BME280;46899;47.542;19.082;2023-01-06T05:25:07;101118.75;;;6.06;100.00
61014;BME280;46899;47.542;19.082;2023-01-06T05:28:10;101117.97;;;5.91;100.00
61014;BME280;46899;47.542;19.082;2023-01-06T05:31:13;101117.97;;;5.83;100.00
61014;BME280;46899;47.542;19.082;2023-01-06T05:34:16;101121.41;;;5.75;100.00
61014;BME280;46899;47.542;19.082;2023-01-06T05:37:18;101115.41;;;5.88;100.00
61014;BME280;46899;47.542;19.082;2023-01-06T05:40:21;101111.03;;;6.05;100.00
61014;BME280;46899;47.542;19.082;2023-01-06T05:43:24;101110.19;;;6.00;100.00
61014;BME280;46899;47.542;19.082;2023-01-06T05:46:26;101110.19;;;6.03;100.00
61014;BME280;46899;47.542;19.082;2023-01-06T05:49:29;101118.78;;;6.03;100.00
61014;BME280;46899;47.542;19.082;2023-01-06T05:52:31;101122.16;;;6.19;100.00
61014;BME280;46899;47.542;19.082;2023-01-06T05:55:34;101129.88;;;6.24;100.00
61014;BME280;46899;47.542;19.082;2023-01-06T05:58:37;101135.00;;;6.33;100.00
61014;BME280;46899;47.542;19.082;2023-01-06T06:01:43;101142.72;;;6.37;100.00
61014;BME280;46899;47.542;19.082;2023-01-06T06:04:45;101147.91;;;6.36;100.00
61014;BME280;46899;47.542;19.082;2023-01-06T06:07:52;101156.50;;;6.42;100.00
61014;BME280;46899;47.542;19.082;2023-01-06T06:11:00;101146.94;;;6.50;100.00
61014;BME280;46899;47.542;19.082;2023-01-06T06:14:02;101150.41;;;6.52;100.00
61014;BME280;46899;47.542;19.082;2023-01-06T06:17:05;101151.22;;;6.60;100.00
61014;BME280;46899;47.542;19.082;2023-01-06T06:20:08;101157.22;;;6.65;100.00
61014;BME280;46899;47.542;19.082;2023-01-06T06:23:11;101166.69;;;6.71;100.00
61014;BME280;46899;47.542;19.082;2023-01-06T06:26:13;101153.62;;;6.83;100.00
61014;BME280;46899;47.542;19.082;2023-01-06T06:29:16;101157.12;;;6.80;100.00
61014;BME280;46899;47.542;19.082;2023-01-06T06:32:18;101151.87;;;6.88;100.00
61014;BME280;46899;47.542;19.082;2023-01-06T06:35:21;101154.50;;;6.83;100.00
61014;BME280;46899;47.542;19.082;2023-01-06T06:38:23;101162.28;;;6.79;100.00
61014;BME280;46899;47.542;19.082;2023-01-06T06:41:26;101167.47;;;6.80;100.00
61014;BME280;46899;47.542;19.082;2023-01-06T06:44:29;101178.69;;;6.76;100.00
61014;BME280;46899;47.542;19.082;2023-01-06T06:47:32;101179.56;;;6.74;100.00
61014;BME280;46899;47.542;19.082;2023-01-06T06:50:34;101192.56;;;6.63;100.00
61014;BME280;46899;47.542;19.082;2023-01-06T06:53:37;101177.91;;;6.65;100.00
61014;BME280;46899;47.542;19.082;2023-01-06T06:56:40;101193.44;;;6.64;100.00
61014;BME280;46899;47.542;19.082;2023-01-06T06:59:42;101201.16;;;6.68;100.00
61014;BME280;46899;47.542;19.082;2023-01-06T07:02:48;101196.81;;;6.69;100.00
61014;BME280;46899;47.542;19.082;2023-01-06T07:05:51;101201.09;;;6.77;100.00
61014;BME280;46899;47.542;19.082;2023-01-06T07:08:54;101199.41;;;6.75;100.00
61014;BME280;46899;47.542;19.082;2023-01-06T07:11:57;101201.12;;;6.73;100.00
61014;BME280;46899;47.542;19.082;2023-01-06T07:14:59;101203.75;;;6.68;100.00
61014;BME280;46899;47.542;19.082;2023-01-06T07:18:02;101209.78;;;6.64;100.00
61014;BME280;46899;47.542;19.082;2023-01-06T07:21:06;101221.88;;;6.64;100.00
61014;BME280;46899;47.542;19.082;2023-01-06T07:24:13;101224.44;;;6.67;100.00
61014;BME280;46899;47.542;19.082;2023-01-06T07:27:15;101215.84;;;6.63;100.00
61014;BME280;46899;47.542;19.082;2023-01-06T07:30:17;101216.72;;;6.61;100.00
61014;BME280;46899;47.542;19.082;2023-01-06T07:33:20;101219.28;;;6.62;100.00
61014;BME280;46899;47.542;19.082;2023-01-06T07:36:23;101215.81;;;6.71;100.00
61014;BME280;46899;47.542;19.082;2023-01-06T07:39:25;101222.59;;;6.85;100.00
61014;BME280;46899;47.542;19.082;2023-01-06T07:42:28;101227.81;;;6.82;100.00
61014;BME280;46899;47.542;19.082;2023-01-06T07:45:30;101222.56;;;6.96;100.00
61014;BME280;46899;47.542;19.082;2023-01-06T07:48:33;101219.94;;;7.01;100.00
61014;BME280;46899;47.542;19.082;2023-01-06T07:51:37;101216.50;;;7.02;100.00
61014;BME280;46899;47.542;19.082;2023-01-06T07:54:40;101213.78;;;7.17;100.00
61014;BME280;46899;47.542;19.082;2023-01-06T07:57:43;101217.97;;;7.31;100.00
61014;BME280;46899;47.542;19.082;2023-01-06T08:00:45;101222.09;;;7.55;100.00
61014;BME280;46899;47.542;19.082;2023-01-06T08:03:48;101230.53;;;7.77;100.00
61014;BME280;46899;47.542;19.082;2023-01-06T08:06:50;101232.84;;;8.05;100.00
61014;BME280;46899;47.542;19.082;2023-01-06T08:09:53;101239.28;;;8.49;100.00
61014;BME280;46899;47.542;19.082;2023-01-06T08:12:56;101240.06;;;9.16;97.04
61014;BME280;46899;47.542;19.082;2023-01-06T08:16:02;101247.06;;;9.13;96.08
61014;BME280;46899;47.542;19.082;2023-01-06T08:19:06;101241.62;;;8.68;99.42
61014;BME280;46899;47.542;19.082;2023-01-06T08:22:08;101249.78;;;8.37;100.00
61014;BME280;46899;47.542;19.082;2023-01-06T08:25:11;101239.56;;;8.20;100.00
61014;BME280;46899;47.542;19.082;2023-01-06T08:28:13;101232.78;;;8.11;100.00
61014;BME280;46899;47.542;19.082;2023-01-06T08:31:17;101224.13;;;8.12;100.00
61014;BME280;46899;47.542;19.082;2023-01-06T08:34:20;101210.28;;;8.13;100.00
61014;BME280;46899;47.542;19.082;2023-01-06T08:37:22;101214.59;;;8.13;100.00
61014;BME280;46899;47.542;19.082;2023-01-06T08:40:25;101216.19;;;8.24;100.00
61014;BME280;46899;47.542;19.082;2023-01-06T08:43:27;101214.41;;;8.33;100.00
61014;BME280;46899;47.542;19.082;2023-01-06T08:46:31;101211.69;;;8.42;100.00
61014;BME280;46899;47.542;19.082;2023-01-06T08:49:35;101207.25;;;8.51;100.00
61014;BME280;46899;47.542;19.082;2023-01-06T08:52:37;101210.72;;;8.52;100.00
61014;BME280;46899;47.542;19.082;2023-01-06T08:55:40;101214.22;;;8.49;99.53
61014;BME280;46899;47.542;19.082;2023-01-06T08:58:43;101212.53;;;8.45;99.04
61014;BME280;46899;47.542;19.082;2023-01-06T09:01:46;101215.81;;;8.59;97.84
61014;BME280;46899;47.542;19.082;2023-01-06T09:04:49;101214.84;;;8.66;97.56
61014;BME280;46899;47.542;19.082;2023-01-06T09:07:51;101214.56;;;8.87;96.03
61014;BME280;46899;47.542;19.082;2023-01-06T09:10:54;101214.50;;;8.92;95.42
61014;BME280;46899;47.542;19.082;2023-01-06T09:13:56;101217.22;;;8.83;94.39
61014;BME280;46899;47.542;19.082;2023-01-06T09:16:59;101223.44;;;8.71;92.90
61014;BME280;46899;47.542;19.082;2023-01-06T09:20:01;101238.19;;;8.65;93.11
61014;BME280;46899;47.542;19.082;2023-01-06T09:23:04;101245.97;;;8.65;91.16
61014;BME280;46899;47.542;19.082;2023-01-06T09:26:07;101251.88;;;8.77;89.79
61014;BME280;46899;47.542;19.082;2023-01-06T09:29:10;101245.62;;;8.92;89.01
61014;BME280;46899;47.542;19.082;2023-01-06T09:32:12;101244.59;;;9.04;87.65
61014;BME280;46899;47.542;19.082;2023-01-06T09:35:15;101244.34;;;9.19;88.40
61014;BME280;46899;47.542;19.082;2023-01-06T09:38:18;101247.72;;;9.27;86.27
61014;BME280;46899;47.542;19.082;2023-01-06T09:47:51;101240.97;;;9.69;83.95
61014;BME280;46899;47.542;19.082;2023-01-06T09:50:59;101242.66;;;9.71;82.73
61014;BME280;46899;47.542;19.082;2023-01-06T09:54:20;101232.50;;;9.57;81.89
61014;BME280;46899;47.542;19.082;2023-01-06T09:57:29;101246.28;;;9.61;82.11
61014;BME280;46899;47.542;19.082;2023-01-06T10:00:36;101245.91;;;9.82;82.28
61014;BME280;46899;47.542;19.082;2023-01-06T10:03:40;101256.38;;;9.78;81.33
61014;BME280;46899;47.542;19.082;2023-01-06T10:07:06;101251.44;;;9.66;82.04
61014;BME280;46899;47.542;19.082;2023-01-06T10:22:59;101241.50;;;9.37;82.42
61014;BME280;46899;47.542;19.082;2023-01-06T10:29:16;101224.19;;;9.36;84.48
61014;BME280;46899;47.542;19.082;2023-01-06T10:32:18;101227.72;;;9.32;84.43
61014;BME280;46899;47.542;19.082;2023-01-06T10:35:23;101227.88;;;9.21;84.51
61014;BME280;46899;47.542;19.082;2023-01-06T10:38:34;101227.09;;;9.16;84.15
61014;BME280;46899;47.542;19.082;2023-01-06T10:41:45;101227.28;;;9.04;84.39
61014;BME280;46899;47.542;19.082;2023-01-06T10:44:51;101221.22;;;9.05;84.10
61014;BME280;46899;47.542;19.082;2023-01-06T10:47:54;101213.19;;;9.20;83.07
61014;BME280;46899;47.542;19.082;2023-01-06T10:50:58;101215.44;;;9.41;82.12
61014;BME280;46899;47.542;19.082;2023-01-06T10:54:04;101218.84;;;9.46;81.19
61014;BME280;46899;47.542;19.082;2023-01-06T10:57:13;101217.84;;;9.53;78.72
61014;BME280;46899;47.542;19.082;2023-01-06T11:03:19;101230.72;;;9.59;78.50
61014;BME280;46899;47.542;19.082;2023-01-06T11:06:34;101226.56;;;9.49;79.42
61014;BME280;46899;47.542;19.082;2023-01-06T11:09:39;101221.31;;;9.52;79.19
61014;BME280;46899;47.542;19.082;2023-01-06T11:12:43;101218.91;;;9.40;81.06
61014;BME280;46899;47.542;19.082;2023-01-06T11:15:46;101213.81;;;9.36;79.65
61014;BME280;46899;47.542;19.082;2023-01-06T11:18:53;101219.09;;;9.30;80.14
61014;BME280;46899;47.542;19.082;2023-01-06T11:21:56;101218.00;;;9.43;79.88
61014;BME280;46899;47.542;19.082;2023-01-06T11:24:59;101206.72;;;9.45;78.97
61014;BME280;46899;47.542;19.082;2023-01-06T11:34:18;101215.88;;;9.66;78.62
61014;BME280;46899;47.542;19.082;2023-01-06T11:37:31;101208.09;;;9.66;77.42
61014;BME280;46899;47.542;19.082;2023-01-06T11:40:34;101203.78;;;9.63;78.62
61014;BME280;46899;47.542;19.082;2023-01-06T11:43:40;101215.06;;;9.66;77.41
61014;BME280;46899;47.542;19.082;2023-01-06T11:46:51;101209.78;;;9.69;78.62
61014;BME280;46899;47.542;19.082;2023-01-06T11:49:57;101207.88;;;9.78;78.23
61014;BME280;46899;47.542;19.082;2023-01-06T11:53:14;101210.31;;;9.87;76.58
61014;BME280;46899;47.542;19.082;2023-01-06T11:56:17;101207.28;;;10.10;75.35
61014;BME280;46899;47.542;19.082;2023-01-06T11:59:19;101209.94;;;10.07;77.03
61014;BME280;46899;47.542;19.082;2023-01-06T12:02:28;101205.59;;;10.06;75.65
61014;BME280;46899;47.542;19.082;2023-01-06T12:12:02;101187.19;;;10.19;76.99
61014;BME280;46899;47.542;19.082;2023-01-06T12:15:12;101182.78;;;10.23;76.71
61014;BME280;46899;47.542;19.082;2023-01-06T12:18:17;101176.03;;;10.14;76.86
61014;BME280;46899;47.542;19.082;2023-01-06T12:21:25;101170.72;;;10.19;76.53
61014;BME280;46899;47.542;19.082;2023-01-06T12:24:31;101155.91;;;10.22;76.41
61014;BME280;46899;47.542;19.082;2023-01-06T12:40:29;101151.38;;;10.32;77.00
61014;BME280;46899;47.542;19.082;2023-01-06T12:43:34;101158.19;;;10.38;76.18
61014;BME280;46899;47.542;19.082;2023-01-06T12:46:41;101158.50;;;10.24;75.68
61014;BME280;46899;47.542;19.082;2023-01-06T12:56:27;101141.31;;;10.17;76.69
61014;BME280;46899;47.542;19.082;2023-01-06T13:09:08;101136.19;;;10.11;77.53
61014;BME280;46899;47.542;19.082;2023-01-06T13:15:26;101132.81;;;10.07;79.48
61014;BME280;46899;47.542;19.082;2023-01-06T13:18:32;101128.47;;;10.08;79.59
61014;BME280;46899;47.542;19.082;2023-01-06T13:21:35;101130.38;;;9.98;79.42
61014;BME280;46899;47.542;19.082;2023-01-06T13:28:03;101141.59;;;10.00;80.68
61014;BME280;46899;47.542;19.082;2023-01-06T13:34:28;101137.56;;;9.86;81.62
61014;BME280;46899;47.542;19.082;2023-01-06T13:40:40;101144.72;;;9.73;83.10
61014;BME280;46899;47.542;19.082;2023-01-06T13:43:46;101147.50;;;9.66;83.62
61014;BME280;46899;47.542;19.082;2023-01-06T13:46:50;101152.69;;;9.64;82.97
61014;BME280;46899;47.542;19.082;2023-01-06T13:49:54;101151.19;;;9.52;86.20
61014;BME280;46899;47.542;19.082;2023-01-06T13:52:59;101150.19;;;9.59;85.96
61014;BME280;46899;47.542;19.082;2023-01-06T14:08:48;101129.56;;;9.95;84.71
61014;BME280;46899;47.542;19.082;2023-01-06T14:11:52;101126.22;;;9.90;84.67
61014;BME280;46899;47.542;19.082;2023-01-06T14:14:59;101118.06;;;10.06;81.25
61014;BME280;46899;47.542;19.082;2023-01-06T14:18:02;101120.09;;;9.94;81.71
61014;BME280;46899;47.542;19.082;2023-01-06T14:21:15;101119.13;;;9.98;81.77
61014;BME280;46899;47.542;19.082;2023-01-06T14:30:43;101119.50;;;9.80;83.90
61014;BME280;46899;47.542;19.082;2023-01-06T14:33:45;101118.66;;;9.78;84.76
61014;BME280;46899;47.542;19.082;2023-01-06T14:36:53;101119.66;;;9.71;83.90
61014;BME280;46899;47.542;19.082;2023-01-06T14:39:58;101126.62;;;9.69;85.54
61014;BME280;46899;47.542;19.082;2023-01-06T14:43:04;101131.09;;;9.62;86.32
61014;BME280;46899;47.542;19.082;2023-01-06T14:46:15;101125.16;;;9.54;86.62
61014;BME280;46899;47.542;19.082;2023-01-06T14:49:22;101134.94;;;9.41;87.70
61014;BME280;46899;47.542;19.082;2023-01-06T14:52:32;101127.44;;;9.23;87.99
61014;BME280;46899;47.542;19.082;2023-01-06T14:55:37;101122.47;;;9.11;88.64
61014;BME280;46899;47.542;19.082;2023-01-06T14:58:41;101127.03;;;8.97;89.41
61014;BME280;46899;47.542;19.082;2023-01-06T15:01:44;101122.19;;;8.76;91.41
61014;BME280;46899;47.542;19.082;2023-01-06T15:04:55;101123.38;;;8.54;92.74
61014;BME280;46899;47.542;19.082;2023-01-06T15:08:06;101127.03;;;8.39;95.03
61014;BME280;46899;47.542;19.082;2023-01-06T15:14:31;101121.50;;;7.96;97.14
61014;BME280;46899;47.542;19.082;2023-01-06T15:17:33;101121.75;;;7.75;97.92
61014;BME280;46899;47.542;19.082;2023-01-06T15:20:38;101122.84;;;7.54;98.90
61014;BME280;46899;47.542;19.082;2023-01-06T15:23:43;101121.31;;;7.34;100.00
61014;BME280;46899;47.542;19.082;2023-01-06T15:26:47;101121.44;;;7.19;100.00
61014;BME280;46899;47.542;19.082;2023-01-06T15:29:54;101109.53;;;7.03;100.00
61014;BME280;46899;47.542;19.082;2023-01-06T15:32:57;101113.09;;;6.89;100.00
61014;BME280;46899;47.542;19.082;2023-01-06T15:36:00;101106.19;;;6.85;100.00
61014;BME280;46899;47.542;19.082;2023-01-06T15:39:04;101114.94;;;6.69;100.00
61014;BME280;46899;47.542;19.082;2023-01-06T15:42:07;101111.66;;;6.52;100.00
61014;BME280;46899;47.542;19.082;2023-01-06T15:45:21;101117.72;;;6.45;100.00
61014;BME280;46899;47.542;19.082;2023-01-06T15:48:25;101106.53;;;6.40;100.00
61014;BME280;46899;47.542;19.082;2023-01-06T15:51:30;101101.44;;;6.31;100.00
61014;BME280;46899;47.542;19.082;2023-01-06T15:54:34;101110.84;;;6.34;100.00
61014;BME280;46899;47.542;19.082;2023-01-06T15:57:38;101118.63;;;6.29;100.00
61014;BME280;46899;47.542;19.082;2023-01-06T16:01:15;101115.31;;;6.12;100.00
61014;BME280;46899;47.542;19.082;2023-01-06T16:04:12;101118.78;;;6.02;100.00
61014;BME280;46899;47.542;19.082;2023-01-06T16:07:18;101119.69;;;5.92;100.00
61014;BME280;46899;47.542;19.082;2023-01-06T16:10:34;101120.56;;;5.79;100.00
61014;BME280;46899;47.542;19.082;2023-01-06T16:13:38;101127.47;;;5.71;100.00
61014;BME280;46899;47.542;19.082;2023-01-06T16:16:41;101139.56;;;5.63;100.00
61014;BME280;46899;47.542;19.082;2023-01-06T16:19:54;101137.81;;;5.57;100.00
61014;BME280;46899;47.542;19.082;2023-01-06T16:23:01;101135.22;;;5.69;100.00
61014;BME280;46899;47.542;19.082;2023-01-06T16:26:05;101128.34;;;5.67;100.00
61014;BME280;46899;47.542;19.082;2023-01-06T16:32:32;101128.34;;;5.65;100.00
61014;BME280;46899;47.542;19.082;2023-01-06T16:35:36;101143.00;;;5.52;100.00
61014;BME280;46899;47.542;19.082;2023-01-06T16:38:39;101149.03;;;5.53;100.00
61014;BME280;46899;47.542;19.082;2023-01-06T16:45:00;101141.28;;;5.58;100.00
61014;BME280;46899;47.542;19.082;2023-01-06T16:48:03;101141.25;;;5.61;100.00
61014;BME280;46899;47.542;19.082;2023-01-06T16:51:07;101144.69;;;5.61;100.00
61014;BME280;46899;47.542;19.082;2023-01-06T16:54:16;101137.81;;;5.62;100.00
61014;BME280;46899;47.542;19.082;2023-01-06T16:57:20;101136.09;;;5.65;100.00
61014;BME280;46899;47.542;19.082;2023-01-06T17:00:23;101137.81;;;5.65;100.00
61014;BME280;46899;47.542;19.082;2023-01-06T17:03:30;101146.44;;;5.65;100.00
61014;BME280;46899;47.542;19.082;2023-01-06T17:06:37;101143.00;;;5.60;100.00
61014;BME280;46899;47.542;19.082;2023-01-06T17:09:40;101142.97;;;5.65;100.00
61014;BME280;46899;47.542;19.082;2023-01-06T17:12:45;101126.62;;;5.61;100.00
61014;BME280;46899;47.542;19.082;2023-01-06T17:19:18;101134.34;;;5.76;100.00
61014;BME280;46899;47.542;19.082;2023-01-06T17:22:28;101126.59;;;5.85;100.00
61014;BME280;46899;47.542;19.082;2023-01-06T17:25:31;101133.41;;;6.04;100.00
61014;BME280;46899;47.542;19.082;2023-01-06T17:28:33;101138.56;;;6.09;100.00
61014;BME280;46899;47.542;19.082;2023-01-06T17:31:38;101139.34;;;6.23;100.00
61014;BME280;46899;47.542;19.082;2023-01-06T17:34:41;101132.41;;;6.34;100.00
61014;BME280;46899;47.542;19.082;2023-01-06T17:37:44;101120.25;;;6.51;100.00
61014;BME280;46899;47.542;19.082;2023-01-06T17:40:47;101124.34;;;6.81;100.00
61014;BME280;46899;47.542;19.082;2023-01-06T17:43:49;101122.50;;;6.98;100.00
61014;BME280;46899;47.542;19.082;2023-01-06T17:46:52;101126.69;;;7.13;100.00
61014;BME280;46899;47.542;19.082;2023-01-06T17:49:55;101135.41;;;7.04;100.00
61014;BME280;46899;47.542;19.082;2023-01-06T17:53:02;101128.53;;;7.02;100.00
61014;BME280;46899;47.542;19.082;2023-01-06T17:56:31;101135.28;;;7.16;100.00
61014;BME280;46899;47.542;19.082;2023-01-06T17:59:33;101133.56;;;7.14;100.00
61014;BME280;46899;47.542;19.082;2023-01-06T18:02:38;101147.31;;;7.19;100.00
61014;BME280;46899;47.542;19.082;2023-01-06T18:08:46;101149.03;;;7.24;100.00
61014;BME280;46899;47.542;19.082;2023-01-06T18:11:50;101139.59;;;7.17;100.00
61014;BME280;46899;47.542;19.082;2023-01-06T18:14:53;101142.22;;;7.13;100.00
61014;BME280;46899;47.542;19.082;2023-01-06T18:17:59;101150.03;;;7.05;100.00
61014;BME280;46899;47.542;19.082;2023-01-06T18:24:24;101159.53;;;7.05;100.00
61014;BME280;46899;47.542;19.082;2023-01-06T18:27:28;101156.09;;;7.03;100.00